sensor_id;sensor_type;location;lat;lon;timestamp;temperature;humidity
22917;DHT22;11624;53.250;7.456;2023-06-24T00:00:36;23.12;51.73
22917;DHT22;11624;53.250;7.456;2023-06-24T00:03:05;23.07;51.98
22917;DHT22;11624;53.250;7.456;2023-06-24T00:05:35;23.01;52.16
22917;DHT22;11624;53.250;7.456;2023-06-24T00:08:04;23.01;52.16
22917;DHT22;11624;53.250;7.456;2023-06-24T00:10:33;23.00;52.14
22917;DHT22;11624;53.250;7.456;2023-06-24T00:13:03;22.96;52.15
22917;DHT22;11624;53.250;7.456;2023-06-24T00:15:33;22.99;52.10
22917;DHT22;11624;53.250;7.456;2023-06-24T00:18:01;22.94;52.17
22917;DHT22;11624;53.250;7.456;2023-06-24T00:20:33;22.91;52.15
22917;DHT22;11624;53.250;7.456;2023-06-24T00:23:02;22.91;52.15
22917;DHT22;11624;53.250;7.456;2023-06-24T00:25:31;22.88;52.16
22917;DHT22;11624;53.250;7.456;2023-06-24T00:27:59;22.86;52.08
22917;DHT22;11624;53.250;7.456;2023-06-24T00:30:28;22.84;52.04
22917;DHT22;11624;53.250;7.456;2023-06-24T00:32:58;22.82;52.03
22917;DHT22;11624;53.250;7.456;2023-06-24T00:35:26;22.80;52.14
22917;DHT22;11624;53.250;7.456;2023-06-24T00:37:54;22.76;52.30
22917;DHT22;11624;53.250;7.456;2023-06-24T00:40:26;22.72;52.37
22917;DHT22;11624;53.250;7.456;2023-06-24T00:42:55;22.71;52.27
22917;DHT22;11624;53.250;7.456;2023-06-24T00:45:24;22.69;52.37
22917;DHT22;11624;53.250;7.456;2023-06-24T00:47:53;22.68;52.33
22917;DHT22;11624;53.250;7.456;2023-06-24T00:50:24;22.66;52.40
22917;DHT22;11624;53.250;7.456;2023-06-24T00:52:53;22.63;52.51
22917;DHT22;11624;53.250;7.456;2023-06-24T00:55:21;22.60;52.48
22917;DHT22;11624;53.250;7.456;2023-06-24T00:57:51;22.60;52.45
22917;DHT22;11624;53.250;7.456;2023-06-24T01:00:23;22.58;52.30
22917;DHT22;11624;53.250;7.456;2023-06-24T01:02:51;22.55;52.53
22917;DHT22;11624;53.250;7.456;2023-06-24T01:05:20;22.54;52.58
22917;DHT22;11624;53.250;7.456;2023-06-24T01:07:52;22.52;52.51
22917;DHT22;11624;53.250;7.456;2023-06-24T01:10:24;22.49;52.63
22917;DHT22;11624;53.250;7.456;2023-06-24T01:12:53;22.48;52.65
22917;DHT22;11624;53.250;7.456;2023-06-24T01:15:23;22.44;52.68
22917;DHT22;11624;53.250;7.456;2023-06-24T01:18:00;22.43;52.30
22917;DHT22;11624;53.250;7.456;2023-06-24T01:20:36;22.41;52.36
22917;DHT22;11624;53.250;7.456;2023-06-24T01:23:29;22.35;52.08
22917;DHT22;11624;53.250;7.456;2023-06-24T01:29:09;22.31;52.21
22917;DHT22;11624;53.250;7.456;2023-06-24T01:31:42;22.31;52.48
22917;DHT22;11624;53.250;7.456;2023-06-24T01:34:18;22.29;52.82
22917;DHT22;11624;53.250;7.456;2023-06-24T01:36:58;22.28;52.56
22917;DHT22;11624;53.250;7.456;2023-06-24T01:39:31;22.27;52.82
22917;DHT22;11624;53.250;7.456;2023-06-24T01:42:07;22.28;52.59
22917;DHT22;11624;53.250;7.456;2023-06-24T01:44:38;22.25;52.75
22917;DHT22;11624;53.250;7.456;2023-06-24T01:47:11;22.24;52.85
22917;DHT22;11624;53.250;7.456;2023-06-24T01:49:42;22.21;52.89
22917;DHT22;11624;53.250;7.456;2023-06-24T01:52:13;22.20;52.85
22917;DHT22;11624;53.250;7.456;2023-06-24T01:54:42;22.18;52.84
22917;DHT22;11624;53.250;7.456;2023-06-24T01:57:12;22.19;52.78
22917;DHT22;11624;53.250;7.456;2023-06-24T01:59:45;22.18;52.58
22917;DHT22;11624;53.250;7.456;2023-06-24T02:02:16;22.16;52.68
22917;DHT22;11624;53.250;7.456;2023-06-24T02:04:48;22.12;52.72
22917;DHT22;11624;53.250;7.456;2023-06-24T02:07:18;22.12;52.79
22917;DHT22;11624;53.250;7.456;2023-06-24T02:09:49;22.10;52.91
22917;DHT22;11624;53.250;7.456;2023-06-24T02:12:19;22.09;52.87
22917;DHT22;11624;53.250;7.456;2023-06-24T02:14:49;22.07;52.80
22917;DHT22;11624;53.250;7.456;2023-06-24T02:17:20;22.06;52.69
22917;DHT22;11624;53.250;7.456;2023-06-24T02:19:50;22.03;52.77
22917;DHT22;11624;53.250;7.456;2023-06-24T02:22:18;22.04;52.78
22917;DHT22;11624;53.250;7.456;2023-06-24T02:24:49;22.03;52.71
22917;DHT22;11624;53.250;7.456;2023-06-24T02:27:18;22.01;52.76
22917;DHT22;11624;53.250;7.456;2023-06-24T02:29:48;21.99;52.80
22917;DHT22;11624;53.250;7.456;2023-06-24T02:32:17;21.96;52.85
22917;DHT22;11624;53.250;7.456;2023-06-24T02:34:46;21.93;52.78
22917;DHT22;11624;53.250;7.456;2023-06-24T02:37:15;21.85;52.90
22917;DHT22;11624;53.250;7.456;2023-06-24T02:39:43;21.79;53.01
22917;DHT22;11624;53.250;7.456;2023-06-24T02:42:12;21.72;53.01
22917;DHT22;11624;53.250;7.456;2023-06-24T02:44:41;21.64;53.15
22917;DHT22;11624;53.250;7.456;2023-06-24T02:47:12;21.58;53.14
22917;DHT22;11624;53.250;7.456;2023-06-24T02:49:45;21.51;53.43
22917;DHT22;11624;53.250;7.456;2023-06-24T02:52:15;21.47;53.45
22917;DHT22;11624;53.250;7.456;2023-06-24T02:54:44;21.40;53.55
22917;DHT22;11624;53.250;7.456;2023-06-24T02:57:29;21.35;53.65
22917;DHT22;11624;53.250;7.456;2023-06-24T03:00:21;21.30;53.71
22917;DHT22;11624;53.250;7.456;2023-06-24T03:03:08;21.23;53.81
22917;DHT22;11624;53.250;7.456;2023-06-24T03:05:45;21.22;53.85
22917;DHT22;11624;53.250;7.456;2023-06-24T03:08:16;21.19;54.07
22917;DHT22;11624;53.250;7.456;2023-06-24T03:10:47;21.20;54.13
22917;DHT22;11624;53.250;7.456;2023-06-24T03:13:19;21.18;54.14
22917;DHT22;11624;53.250;7.456;2023-06-24T03:15:55;21.15;54.23
22917;DHT22;11624;53.250;7.456;2023-06-24T03:18:24;21.15;54.26
22917;DHT22;11624;53.250;7.456;2023-06-24T03:20:54;21.15;54.30
22917;DHT22;11624;53.250;7.456;2023-06-24T03:23:26;21.13;54.38
22917;DHT22;11624;53.250;7.456;2023-06-24T03:25:55;21.11;54.42
22917;DHT22;11624;53.250;7.456;2023-06-24T03:28:23;21.11;54.51
22917;DHT22;11624;53.250;7.456;2023-06-24T03:31:02;21.08;54.52
22917;DHT22;11624;53.250;7.456;2023-06-24T03:33:31;21.08;54.56
22917;DHT22;11624;53.250;7.456;2023-06-24T03:36:01;21.08;54.62
22917;DHT22;11624;53.250;7.456;2023-06-24T03:38:33;21.07;54.66
22917;DHT22;11624;53.250;7.456;2023-06-24T03:41:01;21.06;54.71
22917;DHT22;11624;53.250;7.456;2023-06-24T03:43:29;21.07;54.81
22917;DHT22;11624;53.250;7.456;2023-06-24T03:45:58;21.07;54.97
22917;DHT22;11624;53.250;7.456;2023-06-24T03:48:28;21.09;55.10
22917;DHT22;11624;53.250;7.456;2023-06-24T03:50:57;21.11;55.18
22917;DHT22;11624;53.250;7.456;2023-06-24T03:53:28;21.13;55.13
22917;DHT22;11624;53.250;7.456;2023-06-24T03:55:57;21.14;55.34
22917;DHT22;11624;53.250;7.456;2023-06-24T03:58:26;21.17;55.46
22917;DHT22;11624;53.250;7.456;2023-06-24T04:00:54;21.21;55.62
22917;DHT22;11624;53.250;7.456;2023-06-24T04:03:24;21.24;55.67
22917;DHT22;11624;53.250;7.456;2023-06-24T04:05:55;21.27;55.76
22917;DHT22;11624;53.250;7.456;2023-06-24T04:08:24;21.30;55.94
22917;DHT22;11624;53.250;7.456;2023-06-24T04:10:58;21.33;56.08
22917;DHT22;11624;53.250;7.456;2023-06-24T04:13:27;21.35;56.43
22917;DHT22;11624;53.250;7.456;2023-06-24T04:15:55;21.40;56.50
22917;DHT22;11624;53.250;7.456;2023-06-24T04:18:24;21.47;56.52
22917;DHT22;11624;53.250;7.456;2023-06-24T04:20:53;21.52;56.87
22917;DHT22;11624;53.250;7.456;2023-06-24T04:23:21;21.55;57.05
22917;DHT22;11624;53.250;7.456;2023-06-24T04:25:50;21.59;57.29
22917;DHT22;11624;53.250;7.456;2023-06-24T04:28:22;21.67;57.32
22917;DHT22;11624;53.250;7.456;2023-06-24T04:30:50;21.76;57.17
22917;DHT22;11624;53.250;7.456;2023-06-24T04:33:18;21.84;57.12
22917;DHT22;11624;53.250;7.456;2023-06-24T04:35:46;21.87;57.34
22917;DHT22;11624;53.250;7.456;2023-06-24T04:38:14;21.89;57.63
22917;DHT22;11624;53.250;7.456;2023-06-24T04:40:46;21.98;57.58
22917;DHT22;11624;53.250;7.456;2023-06-24T04:43:14;22.03;57.74
22917;DHT22;11624;53.250;7.456;2023-06-24T04:45:44;22.08;57.73
22917;DHT22;11624;53.250;7.456;2023-06-24T04:48:12;22.18;57.70
22917;DHT22;11624;53.250;7.456;2023-06-24T04:50:40;22.23;57.65
22917;DHT22;11624;53.250;7.456;2023-06-24T04:53:08;22.28;57.63
22917;DHT22;11624;53.250;7.456;2023-06-24T04:55:37;22.38;57.44
22917;DHT22;11624;53.250;7.456;2023-06-24T04:58:05;22.40;57.45
22917;DHT22;11624;53.250;7.456;2023-06-24T05:00:33;22.51;57.17
22917;DHT22;11624;53.250;7.456;2023-06-24T05:03:03;22.44;56.95
22917;DHT22;11624;53.250;7.456;2023-06-24T05:05:31;22.55;57.03
22917;DHT22;11624;53.250;7.456;2023-06-24T05:08:02;22.58;56.86
22917;DHT22;11624;53.250;7.456;2023-06-24T05:10:30;22.65;56.78
22917;DHT22;11624;53.250;7.456;2023-06-24T05:12:58;22.75;56.42
22917;DHT22;11624;53.250;7.456;2023-06-24T05:15:26;22.84;56.45
22917;DHT22;11624;53.250;7.456;2023-06-24T05:17:55;22.88;56.03
22917;DHT22;11624;53.250;7.456;2023-06-24T05:20:25;22.97;56.07
22917;DHT22;11624;53.250;7.456;2023-06-24T05:22:55;22.95;55.90
22917;DHT22;11624;53.250;7.456;2023-06-24T05:25:25;22.97;55.39
22917;DHT22;11624;53.250;7.456;2023-06-24T05:27:53;23.08;55.81
22917;DHT22;11624;53.250;7.456;2023-06-24T05:30:22;23.23;55.40
22917;DHT22;11624;53.250;7.456;2023-06-24T05:32:50;23.15;55.04
22917;DHT22;11624;53.250;7.456;2023-06-24T05:35:18;23.30;54.68
22917;DHT22;11624;53.250;7.456;2023-06-24T05:37:48;23.47;54.26
22917;DHT22;11624;53.250;7.456;2023-06-24T05:40:16;23.40;54.21
22917;DHT22;11624;53.250;7.456;2023-06-24T05:42:44;23.55;53.56
22917;DHT22;11624;53.250;7.456;2023-06-24T05:45:12;23.74;53.47
22917;DHT22;11624;53.250;7.456;2023-06-24T05:47:41;23.94;53.07
22917;DHT22;11624;53.250;7.456;2023-06-24T05:50:09;24.05;52.10
22917;DHT22;11624;53.250;7.456;2023-06-24T05:52:37;24.05;51.40
22917;DHT22;11624;53.250;7.456;2023-06-24T05:55:07;24.13;51.00
22917;DHT22;11624;53.250;7.456;2023-06-24T05:57:35;24.23;50.85
22917;DHT22;11624;53.250;7.456;2023-06-24T06:00:05;24.06;50.69
22917;DHT22;11624;53.250;7.456;2023-06-24T06:02:41;24.39;50.46
22917;DHT22;11624;53.250;7.456;2023-06-24T06:05:10;24.55;49.70
22917;DHT22;11624;53.250;7.456;2023-06-24T06:07:38;24.66;49.51
22917;DHT22;11624;53.250;7.456;2023-06-24T06:10:08;24.61;48.89
22917;DHT22;11624;53.250;7.456;2023-06-24T06:12:37;24.63;48.73
22917;DHT22;11624;53.250;7.456;2023-06-24T06:15:06;24.69;48.63
22917;DHT22;11624;53.250;7.456;2023-06-24T06:17:34;24.79;48.21
22917;DHT22;11624;53.250;7.456;2023-06-24T06:20:03;24.86;47.61
22917;DHT22;11624;53.250;7.456;2023-06-24T06:22:31;24.98;47.51
22917;DHT22;11624;53.250;7.456;2023-06-24T06:25:05;25.00;46.91
22917;DHT22;11624;53.250;7.456;2023-06-24T06:27:34;25.06;46.51
22917;DHT22;11624;53.250;7.456;2023-06-24T06:30:03;25.08;46.15
22917;DHT22;11624;53.250;7.456;2023-06-24T06:32:32;25.22;46.19
22917;DHT22;11624;53.250;7.456;2023-06-24T06:35:00;25.39;45.74
22917;DHT22;11624;53.250;7.456;2023-06-24T06:37:28;25.50;46.04
22917;DHT22;11624;53.250;7.456;2023-06-24T06:39:56;25.71;45.77
22917;DHT22;11624;53.250;7.456;2023-06-24T06:42:24;25.69;44.99
22917;DHT22;11624;53.250;7.456;2023-06-24T06:44:54;25.82;44.72
22917;DHT22;11624;53.250;7.456;2023-06-24T06:47:22;25.99;45.29
22917;DHT22;11624;53.250;7.456;2023-06-24T06:49:50;26.07;44.53
22917;DHT22;11624;53.250;7.456;2023-06-24T06:52:18;26.15;44.16
22917;DHT22;11624;53.250;7.456;2023-06-24T06:54:46;26.20;44.03
22917;DHT22;11624;53.250;7.456;2023-06-24T06:57:15;26.30;43.87
22917;DHT22;11624;53.250;7.456;2023-06-24T06:59:43;26.35;43.44
22917;DHT22;11624;53.250;7.456;2023-06-24T07:02:12;26.55;43.50
22917;DHT22;11624;53.250;7.456;2023-06-24T07:04:40;26.72;43.93
22917;DHT22;11624;53.250;7.456;2023-06-24T07:07:09;26.82;43.47
22917;DHT22;11624;53.250;7.456;2023-06-24T07:09:37;27.08;42.98
22917;DHT22;11624;53.250;7.456;2023-06-24T07:12:06;27.25;42.53
22917;DHT22;11624;53.250;7.456;2023-06-24T07:14:34;27.37;42.49
22917;DHT22;11624;53.250;7.456;2023-06-24T07:17:02;27.59;41.71
22917;DHT22;11624;53.250;7.456;2023-06-24T07:19:32;27.88;41.25
22917;DHT22;11624;53.250;7.456;2023-06-24T07:22:00;28.20;40.07
22917;DHT22;11624;53.250;7.456;2023-06-24T07:24:28;28.56;39.64
22917;DHT22;11624;53.250;7.456;2023-06-24T07:26:56;29.02;39.33
22917;DHT22;11624;53.250;7.456;2023-06-24T07:29:24;29.26;38.22
22917;DHT22;11624;53.250;7.456;2023-06-24T07:31:52;29.46;37.96
22917;DHT22;11624;53.250;7.456;2023-06-24T07:34:20;29.72;36.68
22917;DHT22;11624;53.250;7.456;2023-06-24T07:36:50;29.61;37.05
22917;DHT22;11624;53.250;7.456;2023-06-24T07:39:18;29.86;37.44
22917;DHT22;11624;53.250;7.456;2023-06-24T07:41:46;29.91;36.82
22917;DHT22;11624;53.250;7.456;2023-06-24T07:44:14;30.23;37.01
22917;DHT22;11624;53.250;7.456;2023-06-24T07:46:43;30.48;37.25
22917;DHT22;11624;53.250;7.456;2023-06-24T07:49:11;30.79;35.82
22917;DHT22;11624;53.250;7.456;2023-06-24T07:51:40;30.97;35.46
22917;DHT22;11624;53.250;7.456;2023-06-24T07:54:09;31.12;35.18
22917;DHT22;11624;53.250;7.456;2023-06-24T07:56:37;31.19;34.56
22917;DHT22;11624;53.250;7.456;2023-06-24T07:59:05;31.15;34.71
22917;DHT22;11624;53.250;7.456;2023-06-24T08:01:33;31.30;35.18
22917;DHT22;11624;53.250;7.456;2023-06-24T08:04:01;31.43;34.79
22917;DHT22;11624;53.250;7.456;2023-06-24T08:06:30;31.34;33.79
22917;DHT22;11624;53.250;7.456;2023-06-24T08:08:58;31.14;34.34
22917;DHT22;11624;53.250;7.456;2023-06-24T08:11:27;31.18;34.18
22917;DHT22;11624;53.250;7.456;2023-06-24T08:13:55;31.40;33.97
22917;DHT22;11624;53.250;7.456;2023-06-24T08:16:23;31.31;34.15
22917;DHT22;11624;53.250;7.456;2023-06-24T08:18:51;31.65;34.21
22917;DHT22;11624;53.250;7.456;2023-06-24T08:21:20;31.98;33.79
22917;DHT22;11624;53.250;7.456;2023-06-24T08:23:48;32.19;33.35
22917;DHT22;11624;53.250;7.456;2023-06-24T08:26:17;31.90;33.09
22917;DHT22;11624;53.250;7.456;2023-06-24T08:28:47;31.98;33.32
22917;DHT22;11624;53.250;7.456;2023-06-24T08:31:16;32.05;33.24
22917;DHT22;11624;53.250;7.456;2023-06-24T08:33:44;31.87;33.70
22917;DHT22;11624;53.250;7.456;2023-06-24T08:36:13;32.00;33.54
22917;DHT22;11624;53.250;7.456;2023-06-24T08:38:41;32.22;33.02
22917;DHT22;11624;53.250;7.456;2023-06-24T08:41:09;32.03;33.09
22917;DHT22;11624;53.250;7.456;2023-06-24T08:43:37;31.85;33.32
22917;DHT22;11624;53.250;7.456;2023-06-24T08:46:07;31.95;34.13
22917;DHT22;11624;53.250;7.456;2023-06-24T08:48:39;32.26;33.82
22917;DHT22;11624;53.250;7.456;2023-06-24T08:51:08;32.59;33.41
22917;DHT22;11624;53.250;7.456;2023-06-24T08:53:37;32.89;32.89
22917;DHT22;11624;53.250;7.456;2023-06-24T08:56:06;32.98;32.15
22917;DHT22;11624;53.250;7.456;2023-06-24T08:58:34;32.88;31.13
22917;DHT22;11624;53.250;7.456;2023-06-24T09:01:03;32.89;31.45
22917;DHT22;11624;53.250;7.456;2023-06-24T09:03:33;33.03;32.06
22917;DHT22;11624;53.250;7.456;2023-06-24T09:06:02;33.17;31.63
22917;DHT22;11624;53.250;7.456;2023-06-24T09:08:31;33.15;31.65
22917;DHT22;11624;53.250;7.456;2023-06-24T09:11:02;33.51;31.22
22917;DHT22;11624;53.250;7.456;2023-06-24T09:13:34;33.43;29.67
22917;DHT22;11624;53.250;7.456;2023-06-24T09:16:13;33.18;28.45
22917;DHT22;11624;53.250;7.456;2023-06-24T09:18:47;32.75;29.44
22917;DHT22;11624;53.250;7.456;2023-06-24T09:21:21;32.78;30.48
22917;DHT22;11624;53.250;7.456;2023-06-24T09:23:53;32.87;30.54
22917;DHT22;11624;53.250;7.456;2023-06-24T09:26:23;33.04;31.02
22917;DHT22;11624;53.250;7.456;2023-06-24T09:28:52;32.98;30.87
22917;DHT22;11624;53.250;7.456;2023-06-24T09:31:20;33.23;31.48
22917;DHT22;11624;53.250;7.456;2023-06-24T09:33:51;33.42;31.18
22917;DHT22;11624;53.250;7.456;2023-06-24T09:36:19;33.63;30.06
22917;DHT22;11624;53.250;7.456;2023-06-24T09:38:48;33.55;30.82
22917;DHT22;11624;53.250;7.456;2023-06-24T09:41:17;33.50;30.21
22917;DHT22;11624;53.250;7.456;2023-06-24T09:43:45;33.30;30.68
22917;DHT22;11624;53.250;7.456;2023-06-24T09:46:14;33.35;30.32
22917;DHT22;11624;53.250;7.456;2023-06-24T09:48:44;33.60;30.13
22917;DHT22;11624;53.250;7.456;2023-06-24T09:51:14;33.62;30.67
22917;DHT22;11624;53.250;7.456;2023-06-24T09:53:42;33.65;29.96
22917;DHT22;11624;53.250;7.456;2023-06-24T09:56:14;33.79;29.69
22917;DHT22;11624;53.250;7.456;2023-06-24T09:58:44;33.74;30.17
22917;DHT22;11624;53.250;7.456;2023-06-24T10:01:14;33.89;29.92
22917;DHT22;11624;53.250;7.456;2023-06-24T10:03:43;33.60;29.32
22917;DHT22;11624;53.250;7.456;2023-06-24T10:06:13;33.48;30.40
22917;DHT22;11624;53.250;7.456;2023-06-24T10:08:41;33.79;30.99
22917;DHT22;11624;53.250;7.456;2023-06-24T10:11:10;34.04;30.05
22917;DHT22;11624;53.250;7.456;2023-06-24T10:13:38;33.67;29.34
22917;DHT22;11624;53.250;7.456;2023-06-24T10:16:06;33.67;29.73
22917;DHT22;11624;53.250;7.456;2023-06-24T10:18:35;34.02;29.86
22917;DHT22;11624;53.250;7.456;2023-06-24T10:21:04;34.06;29.32
22917;DHT22;11624;53.250;7.456;2023-06-24T10:23:41;34.32;28.04
22917;DHT22;11624;53.250;7.456;2023-06-24T10:26:10;34.63;29.08
22917;DHT22;11624;53.250;7.456;2023-06-24T10:29:08;35.01;26.82
22917;DHT22;11624;53.250;7.456;2023-06-24T10:31:51;35.20;27.41
22917;DHT22;11624;53.250;7.456;2023-06-24T10:34:31;35.39;28.10
22917;DHT22;11624;53.250;7.456;2023-06-24T10:37:01;35.60;27.20
22917;DHT22;11624;53.250;7.456;2023-06-24T10:39:53;34.95;26.65
22917;DHT22;11624;53.250;7.456;2023-06-24T10:42:29;35.41;26.05
22917;DHT22;11624;53.250;7.456;2023-06-24T10:44:59;35.50;26.54
22917;DHT22;11624;53.250;7.456;2023-06-24T10:47:28;35.43;26.78
22917;DHT22;11624;53.250;7.456;2023-06-24T10:49:56;35.57;26.70
22917;DHT22;11624;53.250;7.456;2023-06-24T10:52:25;35.74;26.57
22917;DHT22;11624;53.250;7.456;2023-06-24T10:54:55;35.53;26.62
22917;DHT22;11624;53.250;7.456;2023-06-24T10:57:25;35.45;26.20
22917;DHT22;11624;53.250;7.456;2023-06-24T10:59:56;35.49;26.24
22917;DHT22;11624;53.250;7.456;2023-06-24T11:02:26;35.63;26.31
22917;DHT22;11624;53.250;7.456;2023-06-24T11:04:57;35.73;25.94
22917;DHT22;11624;53.250;7.456;2023-06-24T11:07:27;35.89;26.01
22917;DHT22;11624;53.250;7.456;2023-06-24T11:09:58;35.64;25.66
22917;DHT22;11624;53.250;7.456;2023-06-24T11:12:29;35.40;25.52
22917;DHT22;11624;53.250;7.456;2023-06-24T11:14:58;35.29;26.02
22917;DHT22;11624;53.250;7.456;2023-06-24T11:17:27;35.35;26.03
22917;DHT22;11624;53.250;7.456;2023-06-24T11:19:56;35.48;26.35
22917;DHT22;11624;53.250;7.456;2023-06-24T11:22:26;35.47;25.65
22917;DHT22;11624;53.250;7.456;2023-06-24T11:24:55;35.88;26.55
22917;DHT22;11624;53.250;7.456;2023-06-24T11:27:28;36.21;25.36
22917;DHT22;11624;53.250;7.456;2023-06-24T11:29:58;36.24;23.98
22917;DHT22;11624;53.250;7.456;2023-06-24T11:32:35;35.95;24.27
22917;DHT22;11624;53.250;7.456;2023-06-24T11:35:05;35.78;25.41
22917;DHT22;11624;53.250;7.456;2023-06-24T11:37:33;35.89;25.28
22917;DHT22;11624;53.250;7.456;2023-06-24T11:40:03;35.80;24.80
22917;DHT22;11624;53.250;7.456;2023-06-24T11:42:35;36.02;24.25
22917;DHT22;11624;53.250;7.456;2023-06-24T11:45:05;36.58;24.74
22917;DHT22;11624;53.250;7.456;2023-06-24T11:47:34;37.03;23.13
22917;DHT22;11624;53.250;7.456;2023-06-24T11:50:04;37.31;22.30
22917;DHT22;11624;53.250;7.456;2023-06-24T11:52:38;37.75;22.24
22917;DHT22;11624;53.250;7.456;2023-06-24T11:55:16;36.98;22.32
22917;DHT22;11624;53.250;7.456;2023-06-24T11:57:54;36.51;24.06
22917;DHT22;11624;53.250;7.456;2023-06-24T12:00:23;36.41;24.85
22917;DHT22;11624;53.250;7.456;2023-06-24T12:02:56;36.38;25.48
22917;DHT22;11624;53.250;7.456;2023-06-24T12:05:26;36.61;24.77
22917;DHT22;11624;53.250;7.456;2023-06-24T12:07:56;37.07;25.17
22917;DHT22;11624;53.250;7.456;2023-06-24T12:10:26;37.69;23.30
22917;DHT22;11624;53.250;7.456;2023-06-24T12:12:57;38.02;21.41
22917;DHT22;11624;53.250;7.456;2023-06-24T12:15:26;38.06;20.81
22917;DHT22;11624;53.250;7.456;2023-06-24T12:17:54;38.03;20.79
22917;DHT22;11624;53.250;7.456;2023-06-24T12:20:24;37.45;21.92
22917;DHT22;11624;53.250;7.456;2023-06-24T12:22:56;37.28;22.36
22917;DHT22;11624;53.250;7.456;2023-06-24T12:25:24;36.77;22.56
22917;DHT22;11624;53.250;7.456;2023-06-24T12:27:52;36.57;23.67
22917;DHT22;11624;53.250;7.456;2023-06-24T12:30:22;36.52;24.17
22917;DHT22;11624;53.250;7.456;2023-06-24T12:32:50;36.61;24.49
22917;DHT22;11624;53.250;7.456;2023-06-24T12:35:18;36.69;25.92
22917;DHT22;11624;53.250;7.456;2023-06-24T12:37:47;36.75;25.25
22917;DHT22;11624;53.250;7.456;2023-06-24T12:40:15;36.92;24.06
22917;DHT22;11624;53.250;7.456;2023-06-24T12:42:43;36.86;23.79
22917;DHT22;11624;53.250;7.456;2023-06-24T12:45:11;36.98;24.21
22917;DHT22;11624;53.250;7.456;2023-06-24T12:47:41;36.86;22.76
22917;DHT22;11624;53.250;7.456;2023-06-24T12:50:10;37.28;22.63
22917;DHT22;11624;53.250;7.456;2023-06-24T12:52:38;37.79;21.82
22917;DHT22;11624;53.250;7.456;2023-06-24T12:55:07;38.10;21.41
22917;DHT22;11624;53.250;7.456;2023-06-24T12:57:35;38.38;21.44
22917;DHT22;11624;53.250;7.456;2023-06-24T13:00:05;38.37;20.69
22917;DHT22;11624;53.250;7.456;2023-06-24T13:02:35;38.20;21.00
22917;DHT22;11624;53.250;7.456;2023-06-24T13:05:05;38.34;20.99
22917;DHT22;11624;53.250;7.456;2023-06-24T13:07:33;38.24;20.16
22917;DHT22;11624;53.250;7.456;2023-06-24T13:10:02;38.58;20.89
22917;DHT22;11624;53.250;7.456;2023-06-24T13:12:33;38.69;21.57
22917;DHT22;11624;53.250;7.456;2023-06-24T13:15:01;38.69;20.00
22917;DHT22;11624;53.250;7.456;2023-06-24T13:17:31;38.35;20.24
22917;DHT22;11624;53.250;7.456;2023-06-24T13:19:59;37.79;20.70
22917;DHT22;11624;53.250;7.456;2023-06-24T13:22:29;37.63;21.12
22917;DHT22;11624;53.250;7.456;2023-06-24T13:24:58;37.12;21.51
22917;DHT22;11624;53.250;7.456;2023-06-24T13:27:26;36.74;22.86
22917;DHT22;11624;53.250;7.456;2023-06-24T13:29:54;36.95;22.56
22917;DHT22;11624;53.250;7.456;2023-06-24T13:32:22;37.30;23.70
22917;DHT22;11624;53.250;7.456;2023-06-24T13:34:50;37.84;21.95
22917;DHT22;11624;53.250;7.456;2023-06-24T13:37:18;38.05;21.72
22917;DHT22;11624;53.250;7.456;2023-06-24T13:39:48;37.58;21.46
22917;DHT22;11624;53.250;7.456;2023-06-24T13:42:16;37.42;23.21
22917;DHT22;11624;53.250;7.456;2023-06-24T13:44:44;37.31;22.53
22917;DHT22;11624;53.250;7.456;2023-06-24T13:47:12;37.18;23.63
22917;DHT22;11624;53.250;7.456;2023-06-24T13:49:40;37.11;24.25
22917;DHT22;11624;53.250;7.456;2023-06-24T13:52:09;37.17;23.33
22917;DHT22;11624;53.250;7.456;2023-06-24T13:54:37;37.45;25.23
22917;DHT22;11624;53.250;7.456;2023-06-24T13:57:07;37.52;22.43
22917;DHT22;11624;53.250;7.456;2023-06-24T13:59:35;37.46;22.56
22917;DHT22;11624;53.250;7.456;2023-06-24T14:02:03;37.36;23.08
22917;DHT22;11624;53.250;7.456;2023-06-24T14:04:32;37.55;22.43
22917;DHT22;11624;53.250;7.456;2023-06-24T14:07:00;37.96;23.49
22917;DHT22;11624;53.250;7.456;2023-06-24T14:09:29;38.36;22.79
22917;DHT22;11624;53.250;7.456;2023-06-24T14:11:57;38.28;21.29
22917;DHT22;11624;53.250;7.456;2023-06-24T14:14:27;37.96;21.77
22917;DHT22;11624;53.250;7.456;2023-06-24T14:16:55;37.72;23.43
22917;DHT22;11624;53.250;7.456;2023-06-24T14:19:23;37.18;22.54
22917;DHT22;11624;53.250;7.456;2023-06-24T14:21:52;36.73;23.59
22917;DHT22;11624;53.250;7.456;2023-06-24T14:24:20;36.43;24.69
22917;DHT22;11624;53.250;7.456;2023-06-24T14:26:48;36.28;24.65
22917;DHT22;11624;53.250;7.456;2023-06-24T14:29:17;36.22;24.74
22917;DHT22;11624;53.250;7.456;2023-06-24T14:31:46;36.09;25.42
22917;DHT22;11624;53.250;7.456;2023-06-24T14:34:14;35.90;26.01
22917;DHT22;11624;53.250;7.456;2023-06-24T14:36:43;35.87;26.98
22917;DHT22;11624;53.250;7.456;2023-06-24T14:39:14;35.87;27.39
22917;DHT22;11624;53.250;7.456;2023-06-24T14:41:43;35.72;28.76
22917;DHT22;11624;53.250;7.456;2023-06-24T14:44:11;35.47;30.08
22917;DHT22;11624;53.250;7.456;2023-06-24T14:46:39;35.12;31.02
22917;DHT22;11624;53.250;7.456;2023-06-24T14:49:09;34.95;31.69
22917;DHT22;11624;53.250;7.456;2023-06-24T14:51:37;34.71;32.31
22917;DHT22;11624;53.250;7.456;2023-06-24T14:54:06;34.56;33.12
22917;DHT22;11624;53.250;7.456;2023-06-24T14:56:34;34.60;32.96
22917;DHT22;11624;53.250;7.456;2023-06-24T14:59:02;34.51;32.89
22917;DHT22;11624;53.250;7.456;2023-06-24T15:01:30;34.39;33.34
22917;DHT22;11624;53.250;7.456;2023-06-24T15:03:58;34.21;34.20
22917;DHT22;11624;53.250;7.456;2023-06-24T15:06:27;34.08;34.44
22917;DHT22;11624;53.250;7.456;2023-06-24T15:08:56;34.01;34.15
22917;DHT22;11624;53.250;7.456;2023-06-24T15:11:24;33.94;34.25
22917;DHT22;11624;53.250;7.456;2023-06-24T15:13:52;33.90;34.33
22917;DHT22;11624;53.250;7.456;2023-06-24T15:16:20;33.83;34.34
22917;DHT22;11624;53.250;7.456;2023-06-24T15:18:48;33.90;34.81
22917;DHT22;11624;53.250;7.456;2023-06-24T15:21:16;34.03;34.87
22917;DHT22;11624;53.250;7.456;2023-06-24T15:24:04;34.07;34.41
22917;DHT22;11624;53.250;7.456;2023-06-24T15:26:32;34.02;34.09
22917;DHT22;11624;53.250;7.456;2023-06-24T15:29:00;33.95;34.23
22917;DHT22;11624;53.250;7.456;2023-06-24T15:31:28;34.07;34.05
22917;DHT22;11624;53.250;7.456;2023-06-24T15:33:56;34.16;33.79
22917;DHT22;11624;53.250;7.456;2023-06-24T15:36:25;34.29;34.14
22917;DHT22;11624;53.250;7.456;2023-06-24T15:38:56;34.51;33.38
22917;DHT22;11624;53.250;7.456;2023-06-24T15:41:25;34.63;32.87
22917;DHT22;11624;53.250;7.456;2023-06-24T15:43:53;34.63;32.72
22917;DHT22;11624;53.250;7.456;2023-06-24T15:46:23;34.67;32.68
22917;DHT22;11624;53.250;7.456;2023-06-24T15:48:51;34.57;32.15